Bishops Corner, Connecticut
Current Conditions -  °F | °C
As of 7:53 AM on Saturday 01 Nov 2014 (Local Time) from KMMK Reporting Station
Overcast Overcast  
Wind Chill: 39°   Ceiling: 8500
Heat Index: 45°   Visibility: 10mi
Dew Point: 32°   Wind: 12mph
Humidity: 60%   Direction: 20°NNE
Pressure: 29.84"   Gusts: 21mph
Location:  41.5812°N, 72.8697°W
Report Text: KMMK 011153Z AUTO 02010G18KT 10SM OVC085 07/00 A2984 RMK AO2 SLP104 60000 70002 T00720000 10078 20072 58007 TSNO
Loading
Personal Weather Stations






























Interactive Weather Map
Tropical Storm Tracking
New forecast layout! Learn more

10-Day Weather Forecast

Advertisements
Track Severe Weather on mobile